« 定点 富山空港 2020/7/17 fri | トップページ | 定点 在所 2020/7/21 tue »

2020/07/20

定点 富山空港 2020/7/20 mon

昨夕は、彗星。今朝は種子島からのH2A-F42で空を仰いていましたが、一向に青空が見えませんなぁ。

RJNT 192300Z VRB02KT 9000 VCSH FEW020TCU BKN050 BKN100 25/24 Q1012

20200720_rjnt_00musoude

今朝のお船 むそうで JD4799 先月24日に竣工したばかりの新品。

20200720_rjnt_01jg

お、なにやらボート

20200720_rjnt_02ja04an

20200720_rjnt_03ja04an

ANA313 RJTT-RJNT JA04AN B737-781

20200720_rjnt_04jg

金沢の第14普通科連隊重迫撃砲中隊が訓練で来たようです。

20200720_rjnt_05jg

あの船まで進むんだ、青春映画の様

RJNT 200000Z 20003KT 140V250 7000 -SHRA FEW002 BKN060 24/24 Q1012

20200720_rjnt_06ja04an

20200720_rjnt_07ja04an

ANA316 RJNT-RJTT JA04AN B737-781

20200720_rjnt_08ja9965

JA9965 AS332L1 NNK 朝一で飛来、飛ぶのかなっと思ったら、動きませんでした。

RJNT 200400Z 21003KT 150V290 9999 FEW025 SCT100 BKN180 32/23 Q1010

20200720_rjnt_09ja139t

JA139T↑ AW139 富山県警察 午後から訓練

RJNT 200500Z VRB02KT 9999 FEW025 BKN180 32/24 Q1010

20200720_rjnt_10musoude

帰りに再度お船 まだ停泊中

20200720_rjnt_11ship

太平洋セメント用船なれど、船名は読み取れず

20200720_rjnt_12socol9

SOCOL9 PA 3FGH8 入港です。

20200720_rjnt_13tag

お二人さんが、入港支援で待ってました。

20200720_rjnt_14jg

訓練終了したようで、帰還します。

20200720_rjnt_15jg

道中安全に。また来てね!。

|

« 定点 富山空港 2020/7/17 fri | トップページ | 定点 在所 2020/7/21 tue »

富山空港」カテゴリの記事

陸上自衛隊」カテゴリの記事

コメント

コメントを書く



(ウェブ上には掲載しません)


コメントは記事投稿者が公開するまで表示されません。



« 定点 富山空港 2020/7/17 fri | トップページ | 定点 在所 2020/7/21 tue »